createdAt,value
2022-09-24T00:00:20.044Z,13.4
2022-09-24T00:06:00.554Z,13.4
2022-09-24T00:11:40.913Z,13.3
2022-09-24T00:17:21.359Z,13.3
2022-09-24T00:23:02.034Z,13.3
2022-09-24T00:28:42.454Z,13.3
2022-09-24T00:34:22.760Z,13.4
2022-09-24T00:40:03.129Z,13.4
2022-09-24T00:45:43.467Z,13.3
2022-09-24T00:51:24.607Z,13.1
2022-09-24T00:57:04.749Z,13
2022-09-24T01:02:45.252Z,12.8
2022-09-24T01:08:26.099Z,12.6
2022-09-24T01:14:06.502Z,12.4
2022-09-24T01:19:50.287Z,12.2
2022-09-24T01:25:30.884Z,12.1
2022-09-24T01:31:11.219Z,12.1
2022-09-24T01:36:52.556Z,12.1
2022-09-24T01:42:32.984Z,12.2
2022-09-24T01:48:13.455Z,12.3
2022-09-24T01:53:54.188Z,12.6
2022-09-24T01:59:34.807Z,12.7
2022-09-24T02:05:15.137Z,12.9
2022-09-24T02:10:55.806Z,13
2022-09-24T02:16:38.583Z,13
2022-09-24T02:22:18.877Z,13
2022-09-24T02:27:59.207Z,13
2022-09-24T02:33:39.639Z,13.1
2022-09-24T02:39:20.212Z,13.1
2022-09-24T02:45:00.613Z,13.2
2022-09-24T02:50:41.248Z,13.2
2022-09-24T02:56:21.242Z,13.1
2022-09-24T03:02:01.605Z,13.1
2022-09-24T03:07:43.366Z,13
2022-09-24T03:13:23.483Z,12.9
2022-09-24T03:19:03.868Z,13
2022-09-24T03:24:44.244Z,13
2022-09-24T03:30:28.092Z,12.9
2022-09-24T03:36:24.458Z,12.9
2022-09-24T03:42:12.714Z,12.8
2022-09-24T03:47:52.683Z,12.6
2022-09-24T03:53:32.890Z,12.6
2022-09-24T03:59:15.166Z,12.6
2022-09-24T04:04:55.514Z,12.6
2022-09-24T04:10:36.001Z,12.6
2022-09-24T04:16:16.712Z,12.6
2022-09-24T04:21:58.367Z,12.7
2022-09-24T04:27:38.831Z,12.6
2022-09-24T04:33:19.519Z,12.6
2022-09-24T04:39:00.394Z,12.6
2022-09-24T04:44:40.801Z,12.4
2022-09-24T04:50:21.444Z,12.3
2022-09-24T04:56:01.355Z,12.2
2022-09-24T05:01:44.645Z,12.1
2022-09-24T05:07:26.688Z,12.2
2022-09-24T05:13:06.987Z,12.3
2022-09-24T05:18:47.063Z,12.2
2022-09-24T05:24:27.254Z,12.1
2022-09-24T05:30:07.367Z,12
2022-09-24T05:35:47.638Z,12
2022-09-24T05:41:28.026Z,12
2022-09-24T05:47:08.644Z,12.1
2022-09-24T05:52:48.982Z,12.2
2022-09-24T05:58:29.987Z,12.3
2022-09-24T06:04:10.490Z,12.4
2022-09-24T06:09:50.742Z,12.5
2022-09-24T06:15:31.472Z,12.6
2022-09-24T06:21:11.961Z,12.9
2022-09-24T06:26:52.384Z,13
2022-09-24T06:32:32.926Z,13.2
2022-09-24T06:38:13.397Z,13.4
2022-09-24T06:43:53.920Z,13.7
2022-09-24T06:49:37.504Z,14.1
2022-09-24T06:55:18.830Z,14.4
2022-09-24T07:01:03.094Z,14.6
2022-09-24T07:06:48.455Z,14.8
2022-09-24T07:12:31.231Z,15
2022-09-24T07:18:11.580Z,15.1
2022-09-24T07:23:56.407Z,15.3
2022-09-24T07:29:39.372Z,15.6
2022-09-24T07:35:19.746Z,15.6
2022-09-24T07:41:03.173Z,15.5
2022-09-24T07:46:43.363Z,15.7
2022-09-24T07:52:24.842Z,16.1
2022-09-24T07:58:06.012Z,16.6
2022-09-24T08:03:46.500Z,16.7
2022-09-24T08:09:27.676Z,16.9
2022-09-24T08:15:08.236Z,17
2022-09-24T08:20:48.232Z,16.6
2022-09-24T08:26:28.790Z,16.9
2022-09-24T08:32:09.513Z,17.2
2022-09-24T08:37:49.741Z,17.4
2022-09-24T08:43:29.987Z,17.9
2022-09-24T08:49:10.546Z,18.3
2022-09-24T08:54:50.652Z,18.4
2022-09-24T09:00:33.974Z,18.6
2022-09-24T09:06:14.517Z,18.6
2022-09-24T09:11:54.787Z,18.4
2022-09-24T09:17:35.182Z,17.9
2022-09-24T09:23:15.362Z,17.3
2022-09-24T09:28:55.837Z,17.4
2022-09-24T09:34:36.164Z,17.3
2022-09-24T09:40:17.166Z,17.6
2022-09-24T09:45:58.690Z,17.5
2022-09-24T09:51:39.319Z,17.2
2022-09-24T09:57:20.469Z,17
2022-09-24T10:03:00.949Z,17.3
2022-09-24T10:08:42.264Z,17.2
2022-09-24T10:14:22.868Z,17.4
2022-09-24T10:20:03.338Z,17.4
2022-09-24T10:25:43.674Z,17.9
2022-09-24T10:36:27.298Z,18.3
2022-09-24T10:42:08.202Z,18.7
2022-09-24T10:47:49.002Z,19
2022-09-24T10:53:29.358Z,19.3
2022-09-24T10:59:09.565Z,18.8
2022-09-24T11:04:50.251Z,18.9
2022-09-24T11:10:30.558Z,19.3
2022-09-24T11:16:13.931Z,19.1
2022-09-24T11:21:55.371Z,19.5
2022-09-24T11:27:38.662Z,19.6
2022-09-24T11:33:22.799Z,19.5
2022-09-24T11:39:07.841Z,19.5
2022-09-24T11:44:49.717Z,19
2022-09-24T11:50:37.301Z,18.3
2022-09-24T11:56:27.850Z,18
2022-09-24T12:02:08.357Z,17.6
2022-09-24T12:07:50.316Z,17.4
2022-09-24T12:13:39.750Z,17.5
2022-09-24T12:19:21.556Z,17.9
2022-09-24T12:25:11.395Z,18.3
2022-09-24T12:36:15.464Z,18.4
2022-09-24T13:10:11.736Z,19.9
2022-09-24T13:21:35.675Z,19.4
2022-09-24T13:27:18.781Z,19.6
2022-09-24T13:33:00.754Z,19.1
2022-09-24T13:38:41.715Z,18.8
2022-09-24T13:44:22.837Z,19.1
2022-09-24T13:50:03.895Z,19.2
2022-09-24T13:55:48.169Z,18.9
2022-09-24T14:01:28.941Z,18.6
2022-09-24T14:07:10.082Z,18.5
2022-09-24T14:12:50.509Z,18.2
2022-09-24T14:18:31.238Z,18.1
2022-09-24T14:24:18.098Z,17.9
2022-09-24T14:30:04.274Z,17.7
2022-09-24T14:35:45.679Z,17.4
2022-09-24T14:41:26.361Z,17.5
2022-09-24T14:47:10.202Z,17.1
2022-09-24T14:52:51.164Z,16.9
2022-09-24T14:58:37.237Z,16.8
2022-09-24T15:04:23.924Z,16.9
2022-09-24T15:10:05.419Z,17
2022-09-24T15:15:50.227Z,16.9
2022-09-24T15:21:38.799Z,17
2022-09-24T15:27:29.562Z,17
2022-09-24T15:33:16.914Z,17
2022-09-24T15:38:57.741Z,17
2022-09-24T15:44:45.631Z,17.1
2022-09-24T15:50:29.134Z,17.1
2022-09-24T15:56:09.690Z,17.2
2022-09-24T16:01:53.825Z,17.2
2022-09-24T16:07:35.389Z,17.1
2022-09-24T16:13:18.270Z,17
2022-09-24T16:18:59.464Z,16.7
2022-09-24T16:24:43.471Z,16.5
2022-09-24T16:30:29.630Z,16.4
2022-09-24T16:36:17.801Z,16.3
2022-09-24T16:42:04.997Z,16.1
2022-09-24T16:47:45.589Z,15.9
2022-09-24T16:53:26.398Z,15.8
2022-09-24T16:59:06.943Z,15.7
2022-09-24T17:04:50.956Z,15.6
2022-09-24T17:10:31.812Z,15.5
2022-09-24T17:16:12.501Z,15.4
2022-09-24T17:21:57.576Z,15.4
2022-09-24T17:27:38.102Z,15.2
2022-09-24T17:33:42.125Z,15.1
2022-09-24T17:39:29.720Z,15.1
2022-09-24T17:45:10.375Z,15
2022-09-24T18:01:00.835Z,14.6
2022-09-24T18:06:41.809Z,14.6
2022-09-24T18:12:25.281Z,14.6
2022-09-24T18:18:11.260Z,14.5
2022-09-24T18:23:55.290Z,14.5
2022-09-24T18:29:57.478Z,14.5
2022-09-24T18:35:45.379Z,14.5
2022-09-24T18:41:27.189Z,14.5
2022-09-24T18:47:15.943Z,14.5
2022-09-24T18:53:02.201Z,14.4
2022-09-24T18:58:51.777Z,14.3
2022-09-24T19:04:40.676Z,14.3
2022-09-24T19:10:40.917Z,14.2
2022-09-24T19:16:43.393Z,14.2
2022-09-24T19:22:42.964Z,14.2
2022-09-24T19:28:25.804Z,14.1
2022-09-24T19:34:15.889Z,13.9
2022-09-24T19:40:08.806Z,13.9
2022-09-24T19:46:00.791Z,13.8
2022-09-24T19:51:45.449Z,13.7
2022-09-24T19:57:54.164Z,13.8
2022-09-24T20:03:52.031Z,13.7
2022-09-24T20:09:32.576Z,13.7
2022-09-24T20:15:29.351Z,13.6
2022-09-24T20:21:16.439Z,13.6
2022-09-24T20:27:13.861Z,13.5
2022-09-24T20:33:17.887Z,13.3
2022-09-24T20:39:44.375Z,13.2
2022-09-24T20:45:28.311Z,13.1
2022-09-24T20:51:08.652Z,13.1
2022-09-24T20:56:49.528Z,13.1
2022-09-24T21:02:34.916Z,13.1
2022-09-24T21:08:25.044Z,13.1
2022-09-24T21:14:05.374Z,13.1
2022-09-24T21:19:52.302Z,13.1
2022-09-24T21:25:53.190Z,13
2022-09-24T21:31:35.720Z,13.1
2022-09-24T21:37:16.086Z,13.1
2022-09-24T21:42:56.592Z,13.1
2022-09-24T21:48:37.217Z,13.2
2022-09-24T21:54:17.818Z,13.1
2022-09-24T22:00:01.783Z,13.1
2022-09-24T22:05:42.087Z,13.1
2022-09-24T22:11:23.004Z,13.1
2022-09-24T22:17:03.483Z,13.1
2022-09-24T22:22:45.576Z,13.1
2022-09-24T22:28:28.895Z,13.1
2022-09-24T22:34:12.480Z,13.2
2022-09-24T22:39:56.586Z,13.2
2022-09-24T22:45:37.642Z,13.2
2022-09-24T22:51:20.623Z,13.2
2022-09-24T22:57:00.930Z,13.2
2022-09-24T23:02:41.978Z,13.1
2022-09-24T23:08:22.266Z,13.1
2022-09-24T23:14:02.924Z,13.2
2022-09-24T23:19:45.829Z,13.1
2022-09-24T23:25:26.363Z,13.2
2022-09-24T23:31:07.651Z,13.1
2022-09-24T23:36:55.347Z,13.1
2022-09-24T23:42:35.680Z,13.1
2022-09-24T23:48:15.905Z,13.2
2022-09-24T23:53:56.901Z,13.3
2022-09-24T23:59:37.199Z,13.2
